createdAt,value
2018-09-19T00:00:29.430Z,53.12
2018-09-19T00:01:29.906Z,53.17
2018-09-19T00:02:30.379Z,53.24
2018-09-19T00:03:30.858Z,53.30
2018-09-19T00:04:31.337Z,53.39
2018-09-19T00:05:31.800Z,53.47
2018-09-19T00:06:32.275Z,53.53
2018-09-19T00:07:32.750Z,53.59
2018-09-19T00:08:33.219Z,53.65
2018-09-19T00:09:33.694Z,53.72
2018-09-19T00:10:34.174Z,53.77
2018-09-19T00:11:34.641Z,53.81
2018-09-19T00:12:35.111Z,53.85
2018-09-19T00:13:35.585Z,53.86
2018-09-19T00:14:36.057Z,53.87
2018-09-19T00:15:36.531Z,53.88
2018-09-19T00:16:37.000Z,53.87
2018-09-19T00:17:37.473Z,53.86
2018-09-19T00:18:37.946Z,53.84
2018-09-19T00:19:38.419Z,53.84
2018-09-19T00:20:38.889Z,53.81
2018-09-19T00:21:39.361Z,53.82
2018-09-19T00:22:39.837Z,53.85
2018-09-19T00:23:40.301Z,53.95
2018-09-19T00:24:40.772Z,54.05
2018-09-19T00:25:41.243Z,54.13
2018-09-19T00:26:41.713Z,54.21
2018-09-19T00:27:42.189Z,54.27
2018-09-19T00:28:42.656Z,54.32
2018-09-19T00:29:43.124Z,54.32
2018-09-19T00:30:43.595Z,54.31
2018-09-19T00:31:44.067Z,54.32
2018-09-19T00:32:44.536Z,54.28
2018-09-19T00:33:45.011Z,54.24
2018-09-19T00:34:45.475Z,54.19
2018-09-19T00:35:45.953Z,54.15
2018-09-19T00:36:46.426Z,54.08
2018-09-19T00:37:46.888Z,54.03
2018-09-19T00:38:47.360Z,53.95
2018-09-19T00:39:47.829Z,53.91
2018-09-19T00:40:48.302Z,53.86
2018-09-19T00:41:48.769Z,53.78
2018-09-19T00:42:49.241Z,53.74
2018-09-19T00:43:49.713Z,53.70
2018-09-19T00:44:50.184Z,53.64
2018-09-19T00:45:50.660Z,53.57
2018-09-19T00:46:51.126Z,53.53
2018-09-19T00:47:51.602Z,53.47
2018-09-19T00:48:52.072Z,53.45
2018-09-19T00:49:52.545Z,53.43
2018-09-19T00:50:53.034Z,53.42
2018-09-19T00:51:53.489Z,53.40
2018-09-19T00:52:53.959Z,53.37
2018-09-19T00:53:54.432Z,53.35
2018-09-19T00:54:54.907Z,53.35
2018-09-19T00:55:55.381Z,53.33
2018-09-19T00:56:55.847Z,53.31
2018-09-19T00:57:56.323Z,53.28
2018-09-19T00:58:56.797Z,53.22
2018-09-19T00:59:57.271Z,53.16
2018-09-19T01:00:57.741Z,53.11
2018-09-19T01:01:58.220Z,53.10
2018-09-19T01:02:58.689Z,53.07
2018-09-19T01:03:59.165Z,53.04
2018-09-19T01:04:59.644Z,53.06
2018-09-19T01:06:00.114Z,53.09
2018-09-19T01:07:00.608Z,53.11
2018-09-19T01:08:01.060Z,53.11
2018-09-19T01:09:01.533Z,53.13
2018-09-19T01:10:02.010Z,53.18
2018-09-19T01:11:02.482Z,53.23
2018-09-19T01:12:02.957Z,53.30
2018-09-19T01:13:03.430Z,53.35
2018-09-19T01:14:03.904Z,53.43
2018-09-19T01:15:04.381Z,53.49
2018-09-19T01:16:04.851Z,53.54
2018-09-19T01:17:05.325Z,53.60
2018-09-19T01:18:05.797Z,53.65
2018-09-19T01:19:06.272Z,53.71
2018-09-19T01:20:06.746Z,53.79
2018-09-19T01:21:07.219Z,53.84
2018-09-19T01:22:07.691Z,53.90
2018-09-19T01:23:08.164Z,53.92
2018-09-19T01:24:08.636Z,53.95
2018-09-19T01:25:09.108Z,53.94
2018-09-19T01:26:09.581Z,53.94
2018-09-19T01:27:10.052Z,53.93
2018-09-19T01:28:10.523Z,53.89
2018-09-19T01:29:10.996Z,53.88
2018-09-19T01:30:11.467Z,53.86
2018-09-19T01:31:11.937Z,53.87
2018-09-19T01:32:12.410Z,53.92
2018-09-19T01:33:12.881Z,54.00
2018-09-19T01:34:13.351Z,54.09
2018-09-19T01:35:13.821Z,54.17
2018-09-19T01:36:14.293Z,54.24
2018-09-19T01:37:14.762Z,54.28
2018-09-19T01:38:15.231Z,54.31
2018-09-19T01:39:15.702Z,54.31
2018-09-19T01:40:16.178Z,54.31
2018-09-19T01:41:16.643Z,54.33
2018-09-19T01:42:17.112Z,54.29
2018-09-19T01:43:17.584Z,54.22
2018-09-19T01:44:18.054Z,54.17
2018-09-19T01:45:18.522Z,54.10
2018-09-19T01:46:18.994Z,54.03
2018-09-19T01:47:19.468Z,53.92
2018-09-19T01:48:19.935Z,53.85
2018-09-19T01:49:20.406Z,53.80
2018-09-19T01:50:20.877Z,53.75
2018-09-19T01:51:21.349Z,53.68
2018-09-19T01:52:21.820Z,53.63
2018-09-19T01:53:22.288Z,53.56
2018-09-19T01:54:22.761Z,53.54
2018-09-19T01:55:23.232Z,53.50
2018-09-19T01:56:23.707Z,53.46
2018-09-19T01:57:24.174Z,53.43
2018-09-19T01:58:24.645Z,53.42
2018-09-19T01:59:25.123Z,53.40
2018-09-19T02:00:25.592Z,53.38
2018-09-19T02:01:26.060Z,53.35
2018-09-19T02:02:26.537Z,53.32
2018-09-19T02:03:27.012Z,53.30
2018-09-19T02:04:27.480Z,53.29
2018-09-19T02:05:27.955Z,53.26
2018-09-19T02:06:28.424Z,53.25
2018-09-19T02:07:28.897Z,53.25
2018-09-19T02:08:29.379Z,53.21
2018-09-19T02:09:29.845Z,53.15
2018-09-19T02:10:30.317Z,53.09
2018-09-19T02:11:30.795Z,53.08
2018-09-19T02:12:31.268Z,53.07
2018-09-19T02:13:31.740Z,53.03
2018-09-19T02:14:32.216Z,52.99
2018-09-19T02:15:32.687Z,53.04
2018-09-19T02:16:33.166Z,53.08
2018-09-19T02:17:33.637Z,53.11
2018-09-19T02:18:34.111Z,53.14
2018-09-19T02:19:34.596Z,53.17
2018-09-19T02:20:35.060Z,53.21
2018-09-19T02:21:35.532Z,53.26
2018-09-19T02:22:36.007Z,53.34
2018-09-19T02:23:36.479Z,53.41
2018-09-19T02:24:36.955Z,53.48
2018-09-19T02:25:37.428Z,53.54
2018-09-19T02:26:37.903Z,53.60
2018-09-19T02:27:38.407Z,53.66
2018-09-19T02:28:38.859Z,53.72
2018-09-19T02:29:39.320Z,53.78
2018-09-19T02:30:39.793Z,53.83
2018-09-19T02:31:40.315Z,53.89
2018-09-19T02:32:40.740Z,53.92
2018-09-19T02:33:41.211Z,53.94
2018-09-19T02:34:41.699Z,53.92
2018-09-19T02:35:42.157Z,53.92
2018-09-19T02:36:42.633Z,53.90
2018-09-19T02:37:43.102Z,53.87
2018-09-19T02:38:43.570Z,53.85
2018-09-19T02:39:44.041Z,53.83
2018-09-19T02:40:44.515Z,53.85
2018-09-19T02:41:45.004Z,53.93
2018-09-19T02:42:45.454Z,54.02
2018-09-19T02:43:45.930Z,54.10
2018-09-19T02:44:46.395Z,54.17
2018-09-19T02:45:46.951Z,54.22
2018-09-19T02:46:47.336Z,54.27
2018-09-19T02:47:47.812Z,54.29
2018-09-19T02:48:48.280Z,54.29
2018-09-19T02:49:48.746Z,54.31
2018-09-19T02:50:49.218Z,54.28
2018-09-19T02:51:49.688Z,54.21
2018-09-19T02:52:50.157Z,54.17
2018-09-19T02:53:50.628Z,54.12
2018-09-19T02:54:51.102Z,54.04
2018-09-19T02:55:51.626Z,53.97
2018-09-19T02:56:52.043Z,53.89
2018-09-19T02:57:52.511Z,53.80
2018-09-19T02:58:52.981Z,53.74
2018-09-19T02:59:53.451Z,53.66
2018-09-19T03:00:53.923Z,53.59
2018-09-19T03:01:54.397Z,53.55
2018-09-19T03:02:54.866Z,53.52
2018-09-19T03:03:55.338Z,53.46
2018-09-19T03:04:55.807Z,53.40
2018-09-19T03:05:56.278Z,53.38
2018-09-19T03:06:56.749Z,53.35
2018-09-19T03:07:57.220Z,53.35
2018-09-19T03:08:57.693Z,53.33
2018-09-19T03:09:58.164Z,53.29
2018-09-19T03:10:58.637Z,53.26
2018-09-19T03:11:59.114Z,53.26
2018-09-19T03:12:59.584Z,53.24
2018-09-19T03:14:00.056Z,53.23
2018-09-19T03:15:00.531Z,53.19
2018-09-19T03:16:01.003Z,53.17
2018-09-19T03:17:01.496Z,53.16
2018-09-19T03:18:01.948Z,53.12
2018-09-19T03:19:02.421Z,53.10
2018-09-19T03:20:02.899Z,53.09
2018-09-19T03:21:03.369Z,53.09
2018-09-19T03:22:03.841Z,53.05
2018-09-19T03:23:04.316Z,52.98
2018-09-19T03:24:04.796Z,52.94
2018-09-19T03:25:05.266Z,52.95
2018-09-19T03:26:05.749Z,53.00
2018-09-19T03:27:06.214Z,53.04
2018-09-19T03:28:06.689Z,53.05
2018-09-19T03:29:07.159Z,53.09
2018-09-19T03:30:07.634Z,53.11
2018-09-19T03:31:08.108Z,53.15
2018-09-19T03:32:08.585Z,53.18
2018-09-19T03:33:09.056Z,53.23
2018-09-19T03:34:09.583Z,53.28
2018-09-19T03:35:10.004Z,53.34
2018-09-19T03:36:10.476Z,53.39
2018-09-19T03:37:10.958Z,53.43
2018-09-19T03:38:11.425Z,53.46
2018-09-19T03:39:11.894Z,53.49
2018-09-19T03:40:12.367Z,53.54
2018-09-19T03:41:12.841Z,53.61
2018-09-19T03:42:13.314Z,53.65
2018-09-19T03:43:13.785Z,53.68
2018-09-19T03:44:14.258Z,53.69
2018-09-19T03:45:14.731Z,53.69
2018-09-19T03:46:15.201Z,53.67
2018-09-19T03:47:15.671Z,53.66
2018-09-19T03:48:16.144Z,53.66
2018-09-19T03:49:16.614Z,53.67
2018-09-19T03:50:17.085Z,53.73
2018-09-19T03:51:17.560Z,53.83
2018-09-19T03:52:18.027Z,53.96
2018-09-19T03:53:18.497Z,54.08
2018-09-19T03:54:18.973Z,54.17
2018-09-19T03:55:19.439Z,54.24
2018-09-19T03:56:19.909Z,54.30
2018-09-19T03:57:20.383Z,54.30
2018-09-19T03:58:20.894Z,54.31
2018-09-19T03:59:21.327Z,54.34
2018-09-19T04:00:21.792Z,54.30
2018-09-19T04:01:22.263Z,54.25
2018-09-19T04:02:22.732Z,54.21
2018-09-19T04:03:23.203Z,54.16
2018-09-19T04:04:23.674Z,54.10
2018-09-19T04:05:24.144Z,54.02
2018-09-19T04:06:24.613Z,53.92
2018-09-19T04:07:25.084Z,53.88
2018-09-19T04:08:25.556Z,53.80
2018-09-19T04:09:26.025Z,53.70
2018-09-19T04:10:26.496Z,53.61
2018-09-19T04:11:26.967Z,53.57
2018-09-19T04:12:27.436Z,53.48
2018-09-19T04:13:27.908Z,53.44
2018-09-19T04:14:28.378Z,53.39
2018-09-19T04:15:28.851Z,53.35
2018-09-19T04:16:29.323Z,53.33
2018-09-19T04:17:29.792Z,53.32
2018-09-19T04:18:30.262Z,53.30
2018-09-19T04:19:30.738Z,53.29
2018-09-19T04:20:31.208Z,53.28
2018-09-19T04:21:31.682Z,53.29
2018-09-19T04:22:32.156Z,53.31
2018-09-19T04:23:32.628Z,53.33
2018-09-19T04:24:33.097Z,53.34
2018-09-19T04:25:33.573Z,53.34
2018-09-19T04:26:34.049Z,53.33
2018-09-19T04:27:34.519Z,53.30
2018-09-19T04:28:34.992Z,53.24
2018-09-19T04:29:35.465Z,53.20
2018-09-19T04:30:35.937Z,53.16
2018-09-19T04:31:36.413Z,53.15
2018-09-19T04:32:36.890Z,53.08
2018-09-19T04:33:37.358Z,52.98
2018-09-19T04:34:37.835Z,52.95
2018-09-19T04:35:38.308Z,52.98
2018-09-19T04:36:38.780Z,53.01
2018-09-19T04:37:39.257Z,53.02
2018-09-19T04:38:39.740Z,53.05
2018-09-19T04:39:40.207Z,53.07
2018-09-19T04:40:40.677Z,53.10
2018-09-19T04:41:41.155Z,53.16
2018-09-19T04:42:41.628Z,53.23
2018-09-19T04:43:42.098Z,53.32
2018-09-19T04:44:42.572Z,53.39
2018-09-19T04:45:43.048Z,53.50
2018-09-19T04:46:43.518Z,53.56
2018-09-19T04:47:43.991Z,53.65
2018-09-19T04:48:44.465Z,53.74
2018-09-19T04:49:44.940Z,53.81
2018-09-19T04:50:45.417Z,53.88
2018-09-19T04:51:45.883Z,53.96
2018-09-19T04:52:46.355Z,54.02
2018-09-19T04:53:46.828Z,54.07
2018-09-19T04:54:47.301Z,54.09
2018-09-19T04:55:47.771Z,54.09
2018-09-19T04:56:48.243Z,54.10
2018-09-19T04:57:48.716Z,54.08
2018-09-19T04:58:49.185Z,54.09
2018-09-19T04:59:49.658Z,54.15
2018-09-19T05:00:50.125Z,54.24
2018-09-19T05:01:50.598Z,54.34
2018-09-19T05:02:51.067Z,54.42
2018-09-19T05:03:51.538Z,54.49
2018-09-19T05:04:52.011Z,54.51
2018-09-19T05:05:52.516Z,54.54
2018-09-19T05:06:52.955Z,54.52
2018-09-19T05:07:53.422Z,54.53
2018-09-19T05:08:53.889Z,54.52
2018-09-19T05:09:54.367Z,54.46
2018-09-19T05:10:54.830Z,54.42
2018-09-19T05:11:55.299Z,54.35
2018-09-19T05:12:55.772Z,54.31
2018-09-19T05:13:56.239Z,54.24
2018-09-19T05:14:56.709Z,54.15
2018-09-19T05:15:57.181Z,54.10
2018-09-19T05:16:57.651Z,54.02
2018-09-19T05:17:58.120Z,53.93
2018-09-19T05:18:58.593Z,53.89
2018-09-19T05:19:59.062Z,53.81
2018-09-19T05:20:59.532Z,53.73
2018-09-19T05:22:00.004Z,53.65
2018-09-19T05:23:00.474Z,53.58
2018-09-19T05:24:00.946Z,53.55
2018-09-19T05:25:01.421Z,53.53
2018-09-19T05:26:01.954Z,53.50
2018-09-19T05:27:02.361Z,53.45
2018-09-19T05:28:02.832Z,53.43
2018-09-19T05:29:03.302Z,53.42
2018-09-19T05:30:03.775Z,53.39
2018-09-19T05:31:04.248Z,53.38
2018-09-19T05:32:04.718Z,53.34
2018-09-19T05:33:05.194Z,53.31
2018-09-19T05:34:05.665Z,53.32
2018-09-19T05:35:06.139Z,53.31
2018-09-19T05:36:06.610Z,53.31
2018-09-19T05:37:07.085Z,53.31
2018-09-19T05:38:07.555Z,53.27
2018-09-19T05:39:08.031Z,53.24
2018-09-19T05:40:08.503Z,53.19
2018-09-19T05:41:08.976Z,53.13
2018-09-19T05:42:09.454Z,53.10
2018-09-19T05:43:09.921Z,53.07
2018-09-19T05:44:10.398Z,52.99
2018-09-19T05:45:10.871Z,52.96
2018-09-19T05:46:11.347Z,52.96
2018-09-19T05:47:11.818Z,53.00
2018-09-19T05:48:12.293Z,53.04
2018-09-19T05:49:12.766Z,53.07
2018-09-19T05:50:13.243Z,53.12
2018-09-19T05:51:13.719Z,53.21
2018-09-19T05:52:14.190Z,53.25
2018-09-19T05:53:14.663Z,53.31
2018-09-19T05:54:15.136Z,53.37
2018-09-19T05:55:15.609Z,53.42
2018-09-19T05:56:16.083Z,53.45
2018-09-19T05:57:16.556Z,53.50
2018-09-19T05:58:17.030Z,53.54
2018-09-19T05:59:17.503Z,53.57
2018-09-19T06:00:18.004Z,53.60
2018-09-19T06:01:18.448Z,53.64
2018-09-19T06:02:18.922Z,53.69
2018-09-19T06:03:19.392Z,53.75
2018-09-19T06:04:19.864Z,53.74
2018-09-19T06:05:20.335Z,53.75
2018-09-19T06:06:20.811Z,53.76
2018-09-19T06:07:21.281Z,53.73
2018-09-19T06:08:21.751Z,53.73
2018-09-19T06:09:22.225Z,53.75
2018-09-19T06:10:22.695Z,53.83
2018-09-19T06:12:23.633Z,54.03
2018-09-19T06:13:24.106Z,54.12
2018-09-19T06:14:24.576Z,54.18
2018-09-19T06:15:25.046Z,54.21
2018-09-19T06:16:25.517Z,54.24
2018-09-19T06:17:25.987Z,54.24
2018-09-19T06:18:26.476Z,54.25
2018-09-19T06:19:26.929Z,54.25
2018-09-19T06:20:27.399Z,54.21
2018-09-19T06:21:27.871Z,54.13
2018-09-19T06:22:28.338Z,54.08
2018-09-19T06:23:28.807Z,54.00
2018-09-19T06:24:29.285Z,53.89
2018-09-19T06:25:29.753Z,53.80
2018-09-19T06:26:30.220Z,53.72
2018-09-19T06:27:30.687Z,53.64
2018-09-19T06:28:31.162Z,53.54
2018-09-19T06:29:31.629Z,53.48
2018-09-19T06:30:32.100Z,53.40
2018-09-19T06:31:32.573Z,53.30
2018-09-19T06:32:33.041Z,53.21
2018-09-19T06:33:33.565Z,53.12
2018-09-19T06:34:34.187Z,53.06
2018-09-19T06:35:34.456Z,53.01
2018-09-19T06:36:34.927Z,52.98
2018-09-19T06:37:35.399Z,52.95
2018-09-19T06:38:35.873Z,52.91
2018-09-19T06:39:36.350Z,52.89
2018-09-19T06:40:36.828Z,52.82
2018-09-19T06:41:37.289Z,52.78
2018-09-19T06:42:37.781Z,52.70
2018-09-19T06:43:38.231Z,52.68
2018-09-19T06:44:38.703Z,52.64
2018-09-19T06:45:39.191Z,52.57
2018-09-19T06:46:39.653Z,52.52
2018-09-19T06:47:40.128Z,52.50
2018-09-19T06:48:40.602Z,52.42
2018-09-19T06:49:41.074Z,52.35
2018-09-19T06:50:41.544Z,52.28
2018-09-19T06:51:42.018Z,52.23
2018-09-19T06:52:42.496Z,52.19
2018-09-19T06:53:42.965Z,52.11
2018-09-19T06:54:43.440Z,52.05
2018-09-19T06:55:43.914Z,52.01
2018-09-19T06:56:44.444Z,52.04
2018-09-19T06:57:44.864Z,52.06
2018-09-19T06:58:45.340Z,52.09
2018-09-19T06:59:45.844Z,52.11
2018-09-19T07:00:46.286Z,52.14
2018-09-19T07:01:46.758Z,52.19
2018-09-19T07:02:47.237Z,52.28
2018-09-19T07:03:47.705Z,52.33
2018-09-19T07:04:48.187Z,52.41
2018-09-19T07:05:48.700Z,52.47
2018-09-19T07:06:49.127Z,52.55
2018-09-19T07:07:49.599Z,52.60
2018-09-19T07:08:50.074Z,52.66
2018-09-19T07:09:50.548Z,52.71
2018-09-19T07:10:51.021Z,52.75
2018-09-19T07:11:51.494Z,52.80
2018-09-19T07:12:51.965Z,52.84
2018-09-19T07:13:52.441Z,52.88
2018-09-19T07:14:52.910Z,52.90
2018-09-19T07:15:53.381Z,52.89
2018-09-19T07:16:54.973Z,52.88
2018-09-19T07:17:54.325Z,52.86
2018-09-19T07:18:54.860Z,52.85
2018-09-19T07:19:55.269Z,52.83
2018-09-19T07:20:55.740Z,52.83
2018-09-19T07:21:56.210Z,52.88
2018-09-19T07:22:56.684Z,52.98
2018-09-19T07:23:57.210Z,53.05
2018-09-19T07:24:57.648Z,53.11
2018-09-19T07:25:58.095Z,53.14
2018-09-19T07:26:58.569Z,53.17
2018-09-19T07:27:59.034Z,53.13
2018-09-19T07:28:59.507Z,53.14
2018-09-19T07:29:59.976Z,53.15
2018-09-19T07:31:00.465Z,53.12
2018-09-19T07:32:00.973Z,53.06
2018-09-19T07:33:01.388Z,52.98
2018-09-19T07:34:01.857Z,52.92
2018-09-19T07:35:02.327Z,52.86
2018-09-19T07:36:02.797Z,52.76
2018-09-19T07:37:03.268Z,52.70
2018-09-19T07:38:03.739Z,52.61
2018-09-19T07:39:04.223Z,52.51
2018-09-19T07:40:04.706Z,52.43
2018-09-19T07:41:05.151Z,52.36
2018-09-19T07:42:05.624Z,52.29
2018-09-19T07:43:06.092Z,52.19
2018-09-19T07:44:06.568Z,52.11
2018-09-19T07:45:07.035Z,52.05
2018-09-19T07:46:07.509Z,52.01
2018-09-19T07:47:07.977Z,51.98
2018-09-19T07:48:08.451Z,51.98
2018-09-19T07:49:08.922Z,51.93
2018-09-19T07:50:09.393Z,51.88
2018-09-19T07:51:09.868Z,51.88
2018-09-19T07:52:10.337Z,51.86
2018-09-19T07:53:10.814Z,51.84
2018-09-19T07:54:11.285Z,51.80
2018-09-19T07:55:11.785Z,51.80
2018-09-19T07:56:12.230Z,51.76
2018-09-19T07:57:12.705Z,51.75
2018-09-19T07:58:13.181Z,51.69
2018-09-19T07:59:13.652Z,51.61
2018-09-19T08:00:14.128Z,51.51
2018-09-19T08:01:14.632Z,51.38
2018-09-19T08:02:15.075Z,51.25
2018-09-19T08:03:15.550Z,51.19
2018-09-19T08:04:16.023Z,51.15
2018-09-19T08:05:16.502Z,51.17
2018-09-19T08:06:16.980Z,51.21
2018-09-19T08:07:17.452Z,51.24
2018-09-19T08:08:17.925Z,51.27
2018-09-19T08:09:18.483Z,51.26
2018-09-19T08:10:18.875Z,51.22
2018-09-19T08:11:19.396Z,51.18
2018-09-19T08:12:19.825Z,51.14
2018-09-19T08:13:20.303Z,51.17
2018-09-19T08:14:20.777Z,51.14
2018-09-19T08:15:21.252Z,51.12
2018-09-19T08:16:21.728Z,51.10
2018-09-19T08:17:22.200Z,51.14
2018-09-19T08:18:22.677Z,51.16
2018-09-19T08:19:23.153Z,51.19
2018-09-19T08:20:23.626Z,51.26
2018-09-19T08:21:24.100Z,51.28
2018-09-19T08:22:24.608Z,51.31
2018-09-19T08:23:25.049Z,51.33
2018-09-19T08:24:25.522Z,51.33
2018-09-19T08:25:25.996Z,51.29
2018-09-19T08:26:26.468Z,51.27
2018-09-19T08:27:26.943Z,51.26
2018-09-19T08:28:27.419Z,51.22
2018-09-19T08:29:27.888Z,51.22
2018-09-19T08:30:28.364Z,51.21
2018-09-19T08:31:28.843Z,51.22
2018-09-19T08:32:29.309Z,51.22
2018-09-19T08:33:29.779Z,51.17
2018-09-19T08:34:30.256Z,51.17
2018-09-19T08:35:30.726Z,51.17
2018-09-19T08:36:31.197Z,51.14
2018-09-19T08:37:31.678Z,51.14
2018-09-19T08:38:32.140Z,51.09
2018-09-19T08:39:32.627Z,51.12
2018-09-19T08:40:33.086Z,51.20
2018-09-19T08:41:33.555Z,51.29
2018-09-19T08:42:34.030Z,51.38
2018-09-19T08:43:34.543Z,51.41
2018-09-19T08:44:34.968Z,51.43
2018-09-19T08:45:35.442Z,51.44
2018-09-19T08:46:35.912Z,51.46
2018-09-19T08:47:36.380Z,51.47
2018-09-19T08:48:36.856Z,51.37
2018-09-19T08:49:37.322Z,51.28
2018-09-19T08:50:37.835Z,51.17
2018-09-19T08:51:38.270Z,51.04
2018-09-19T08:52:38.739Z,50.96
2018-09-19T08:53:39.208Z,50.84
2018-09-19T08:54:39.678Z,50.73
2018-09-19T08:55:40.152Z,50.65
2018-09-19T08:56:40.635Z,50.56
2018-09-19T08:57:41.146Z,50.46
2018-09-19T08:58:41.569Z,50.42
2018-09-19T08:59:42.037Z,50.35
2018-09-19T09:00:42.506Z,50.28
2018-09-19T09:01:42.986Z,50.26
2018-09-19T09:02:43.450Z,50.22
2018-09-19T09:03:43.925Z,50.21
2018-09-19T09:04:44.394Z,50.18
2018-09-19T09:05:44.873Z,50.18
2018-09-19T09:06:45.342Z,50.18
2018-09-19T09:07:45.816Z,50.17
2018-09-19T09:08:46.298Z,50.20
2018-09-19T09:09:46.763Z,50.21
2018-09-19T09:10:47.238Z,50.20
2018-09-19T09:11:47.708Z,50.14
2018-09-19T09:12:48.257Z,50.07
2018-09-19T09:13:48.663Z,50.02
2018-09-19T09:14:49.133Z,49.98
2018-09-19T09:15:49.608Z,49.93
2018-09-19T09:16:50.084Z,49.89
2018-09-19T09:17:50.556Z,49.84
2018-09-19T09:18:51.029Z,49.85
2018-09-19T09:19:51.531Z,49.85
2018-09-19T09:20:51.977Z,49.84
2018-09-19T09:21:52.453Z,49.87
2018-09-19T09:22:52.928Z,49.90
2018-09-19T09:23:53.404Z,49.92
2018-09-19T09:24:53.879Z,49.98
2018-09-19T09:25:54.351Z,50.04
2018-09-19T09:26:54.936Z,50.10
2018-09-19T09:27:55.303Z,50.15
2018-09-19T09:28:55.774Z,50.21
2018-09-19T09:29:56.256Z,50.25
2018-09-19T09:30:56.775Z,50.29
2018-09-19T09:31:57.201Z,50.32
2018-09-19T09:32:57.673Z,50.36
2018-09-19T09:33:58.147Z,50.39
2018-09-19T09:35:55.647Z,50.47
2018-09-19T09:36:56.267Z,50.46
2018-09-19T09:37:56.592Z,50.47
2018-09-19T09:38:57.064Z,50.48
2018-09-19T09:39:57.535Z,50.49
2018-09-19T09:40:58.007Z,50.50
2018-09-19T09:41:58.483Z,50.50
2018-09-19T09:42:58.952Z,50.50
2018-09-19T09:43:59.424Z,50.47
2018-09-19T09:44:59.898Z,50.44
2018-09-19T09:46:00.387Z,50.44
2018-09-19T09:47:00.842Z,50.40
2018-09-19T09:48:01.315Z,50.38
2018-09-19T09:49:01.786Z,50.33
2018-09-19T09:50:02.259Z,50.29
2018-09-19T09:51:02.730Z,50.26
2018-09-19T09:52:03.203Z,50.25
2018-09-19T09:53:03.702Z,50.22
2018-09-19T09:54:04.146Z,50.15
2018-09-19T09:55:04.625Z,50.11
2018-09-19T09:56:05.089Z,50.16
2018-09-19T09:57:05.559Z,50.20
2018-09-19T09:58:06.032Z,50.21
2018-09-19T09:59:06.503Z,50.24
2018-09-19T10:00:06.972Z,50.21
2018-09-19T10:01:07.494Z,50.18
2018-09-19T10:02:07.953Z,50.16
2018-09-19T10:03:08.386Z,50.11
2018-09-19T10:04:08.859Z,50.04
2018-09-19T10:05:09.328Z,49.99
2018-09-19T10:06:09.798Z,49.95
2018-09-19T10:07:10.268Z,49.94
2018-09-19T10:08:10.744Z,49.89
2018-09-19T10:09:11.209Z,49.86
2018-09-19T10:10:11.684Z,49.81
2018-09-19T10:11:12.157Z,49.76
2018-09-19T10:12:12.629Z,49.71
2018-09-19T10:13:13.096Z,49.63
2018-09-19T10:14:13.569Z,49.58
2018-09-19T10:15:14.040Z,49.51
2018-09-19T10:16:14.530Z,49.45
2018-09-19T10:17:14.983Z,49.40
2018-09-19T10:18:15.458Z,49.36
2018-09-19T10:19:15.932Z,49.36
2018-09-19T10:20:16.401Z,49.35
2018-09-19T10:21:16.875Z,49.36
2018-09-19T10:22:17.351Z,49.37
2018-09-19T10:23:17.823Z,49.35
2018-09-19T10:24:18.295Z,49.32
2018-09-19T10:25:18.773Z,49.27
2018-09-19T10:26:19.244Z,49.22
2018-09-19T10:27:19.718Z,49.16
2018-09-19T10:28:20.191Z,49.12
2018-09-19T10:29:20.670Z,49.09
2018-09-19T10:30:21.149Z,49.00
2018-09-19T10:31:21.617Z,48.99
2018-09-19T10:32:22.092Z,48.97
2018-09-19T10:33:22.571Z,48.94
2018-09-19T10:34:23.041Z,48.97
2018-09-19T10:35:23.571Z,48.95
2018-09-19T10:36:23.995Z,48.95
2018-09-19T10:37:24.466Z,48.97
2018-09-19T10:38:24.941Z,49.01
2018-09-19T10:39:25.416Z,49.04
2018-09-19T10:40:25.891Z,49.09
2018-09-19T10:41:26.371Z,49.13
2018-09-19T10:42:26.840Z,49.19
2018-09-19T10:43:27.316Z,49.23
2018-09-19T10:44:27.790Z,49.24
2018-09-19T10:45:28.265Z,49.27
2018-09-19T10:46:28.738Z,49.31
2018-09-19T10:47:29.214Z,49.35
2018-09-19T10:48:29.689Z,49.36
2018-09-19T10:49:30.273Z,49.36
2018-09-19T10:50:30.637Z,49.32
2018-09-19T10:51:31.109Z,49.31
2018-09-19T10:52:31.598Z,49.28
2018-09-19T10:54:32.528Z,49.19
2018-09-19T10:55:33.006Z,49.11
2018-09-19T10:56:33.475Z,49.06
2018-09-19T10:57:33.952Z,49.01
2018-09-19T10:58:34.424Z,48.97
2018-09-19T10:59:34.897Z,48.92
2018-09-19T11:00:35.369Z,48.87
2018-09-19T11:01:35.839Z,48.80
2018-09-19T11:02:36.314Z,48.76
2018-09-19T11:03:36.790Z,48.74
2018-09-19T11:04:37.259Z,48.70
2018-09-19T11:05:37.733Z,48.68
2018-09-19T11:06:38.203Z,48.64
2018-09-19T11:07:38.679Z,48.64
2018-09-19T11:08:39.150Z,48.62
2018-09-19T11:09:39.621Z,48.60
2018-09-19T11:10:40.092Z,48.59
2018-09-19T11:11:40.600Z,48.57
2018-09-19T11:12:41.042Z,48.55
2018-09-19T11:13:41.508Z,48.51
2018-09-19T11:14:42.036Z,48.49
2018-09-19T11:15:42.451Z,48.45
2018-09-19T11:16:42.921Z,48.41
2018-09-19T11:17:43.394Z,48.36
2018-09-19T11:18:43.864Z,48.39
2018-09-19T11:19:44.337Z,48.32
2018-09-19T11:20:44.807Z,48.34
2018-09-19T11:21:45.277Z,48.47
2018-09-19T11:22:45.749Z,48.52
2018-09-19T11:23:46.220Z,48.58
2018-09-19T11:24:46.741Z,48.62
2018-09-19T11:25:47.162Z,48.67
2018-09-19T11:26:47.631Z,48.71
2018-09-19T11:27:48.306Z,48.71
2018-09-19T11:28:48.572Z,48.65
2018-09-19T11:29:49.045Z,48.62
2018-09-19T11:30:49.516Z,48.59
2018-09-19T11:31:49.986Z,48.55
2018-09-19T11:32:50.459Z,48.51
2018-09-19T11:33:50.931Z,48.47
2018-09-19T11:34:51.403Z,48.41
2018-09-19T11:35:51.873Z,48.36
2018-09-19T11:36:52.344Z,48.32
2018-09-19T11:37:52.816Z,48.28
2018-09-19T11:38:53.288Z,48.25
2018-09-19T11:39:53.762Z,48.21
2018-09-19T11:40:54.233Z,48.19
2018-09-19T11:41:54.705Z,48.17
2018-09-19T11:42:55.182Z,48.17
2018-09-19T11:43:55.656Z,48.16
2018-09-19T11:44:56.128Z,48.13
2018-09-19T11:45:56.601Z,48.09
2018-09-19T11:46:57.073Z,48.04
2018-09-19T11:47:57.549Z,47.97
2018-09-19T11:48:58.023Z,47.92
2018-09-19T11:49:58.500Z,47.85
2018-09-19T11:50:58.975Z,47.81
2018-09-19T11:51:59.449Z,47.78
2018-09-19T11:52:59.923Z,47.78
2018-09-19T11:54:00.398Z,47.78
2018-09-19T11:55:00.873Z,47.79
2018-09-19T11:56:01.348Z,47.80
2018-09-19T11:57:01.824Z,47.80
2018-09-19T11:58:02.337Z,47.80
2018-09-19T11:59:02.774Z,47.82
2018-09-19T12:00:03.252Z,47.84
2018-09-19T12:01:03.724Z,47.88
2018-09-19T12:02:04.223Z,47.90
2018-09-19T12:03:04.674Z,47.94
2018-09-19T12:04:05.152Z,47.94
2018-09-19T12:05:06.078Z,47.97
2018-09-19T12:06:06.100Z,48.01
2018-09-19T12:07:06.575Z,48.04
2018-09-19T12:08:07.050Z,48.08
2018-09-19T12:09:07.524Z,48.08
2018-09-19T12:10:07.997Z,48.11
2018-09-19T12:11:08.474Z,48.12
2018-09-19T12:12:08.952Z,48.14
2018-09-19T12:13:09.423Z,48.13
2018-09-19T12:14:09.898Z,48.13
2018-09-19T12:15:10.372Z,48.12
2018-09-19T12:16:10.846Z,48.13
2018-09-19T12:17:11.320Z,48.13
2018-09-19T12:18:11.795Z,48.14
2018-09-19T12:19:12.271Z,48.13
2018-09-19T12:20:12.744Z,48.15
2018-09-19T12:21:13.216Z,48.15
2018-09-19T12:22:13.691Z,48.14
2018-09-19T12:23:14.163Z,48.13
2018-09-19T12:24:14.637Z,48.14
2018-09-19T12:25:15.110Z,48.14
2018-09-19T12:26:15.589Z,48.13
2018-09-19T12:27:16.058Z,48.13
2018-09-19T12:28:16.530Z,48.12
2018-09-19T12:29:17.001Z,48.10
2018-09-19T12:30:17.483Z,48.11
2018-09-19T12:31:17.949Z,48.09
2018-09-19T12:32:18.423Z,48.09
2018-09-19T12:33:18.924Z,48.11
2018-09-19T12:34:19.368Z,48.09
2018-09-19T12:35:19.846Z,48.08
2018-09-19T12:36:20.515Z,48.03
2018-09-19T12:37:20.786Z,47.99
2018-09-19T12:38:21.256Z,47.92
2018-09-19T12:39:21.746Z,47.86
2018-09-19T12:40:22.307Z,47.79
2018-09-19T12:41:22.674Z,47.73
2018-09-19T12:42:23.147Z,47.70
2018-09-19T12:43:23.621Z,47.66
2018-09-19T12:44:24.092Z,47.62
2018-09-19T12:45:24.563Z,47.59
2018-09-19T12:46:25.035Z,47.56
2018-09-19T12:47:25.507Z,47.54
2018-09-19T12:48:25.978Z,47.52
2018-09-19T12:49:26.449Z,47.50
2018-09-19T12:50:26.922Z,47.50
2018-09-19T12:51:27.393Z,47.47
2018-09-19T12:52:27.867Z,47.44
2018-09-19T12:53:28.338Z,47.40
2018-09-19T12:54:28.811Z,47.34
2018-09-19T12:55:29.282Z,47.32
2018-09-19T12:56:29.752Z,47.30
2018-09-19T12:57:30.234Z,47.26
2018-09-19T12:58:30.694Z,47.24
2018-09-19T12:59:31.177Z,47.21
2018-09-19T13:00:31.637Z,47.19
2018-09-19T13:01:32.107Z,47.15